sensor_id;sensor_type;location;lat;lon;timestamp;pressure;altitude;pressure_sealevel;temperature;humidity
22653;BME280;11493;43.344;26.226;2023-09-18T00:01:22;99871.34;;;16.48;100.00
22653;BME280;11493;43.344;26.226;2023-09-18T00:03:49;99875.75;;;16.49;100.00
22653;BME280;11493;43.344;26.226;2023-09-18T00:06:16;99855.09;;;16.37;100.00
22653;BME280;11493;43.344;26.226;2023-09-18T00:08:43;99840.97;;;16.30;100.00
22653;BME280;11493;43.344;26.226;2023-09-18T00:11:10;99845.72;;;16.30;100.00
22653;BME280;11493;43.344;26.226;2023-09-18T00:13:38;99850.44;;;16.29;100.00
22653;BME280;11493;43.344;26.226;2023-09-18T00:16:05;99856.00;;;16.29;100.00
22653;BME280;11493;43.344;26.226;2023-09-18T00:18:33;99850.88;;;16.19;100.00
22653;BME280;11493;43.344;26.226;2023-09-18T00:21:00;99824.53;;;16.04;100.00
22653;BME280;11493;43.344;26.226;2023-09-18T00:23:27;99852.03;;;16.18;100.00
22653;BME280;11493;43.344;26.226;2023-09-18T00:25:54;99857.91;;;16.17;100.00
22653;BME280;11493;43.344;26.226;2023-09-18T00:28:21;99855.00;;;16.13;100.00
22653;BME280;11493;43.344;26.226;2023-09-18T00:30:49;99853.72;;;16.10;100.00
22653;BME280;11493;43.344;26.226;2023-09-18T00:33:17;99861.97;;;16.19;100.00
22653;BME280;11493;43.344;26.226;2023-09-18T00:35:50;99862.31;;;16.18;100.00
22653;BME280;11493;43.344;26.226;2023-09-18T00:38:18;99837.47;;;16.00;100.00
22653;BME280;11493;43.344;26.226;2023-09-18T00:40:47;99865.44;;;16.16;100.00
22653;BME280;11493;43.344;26.226;2023-09-18T00:43:14;99859.75;;;16.13;100.00
22653;BME280;11493;43.344;26.226;2023-09-18T00:45:45;99863.31;;;16.13;100.00
22653;BME280;11493;43.344;26.226;2023-09-18T00:48:15;99863.47;;;16.17;100.00
22653;BME280;11493;43.344;26.226;2023-09-18T00:50:46;99864.47;;;16.12;100.00
22653;BME280;11493;43.344;26.226;2023-09-18T00:53:22;99854.72;;;16.06;100.00
22653;BME280;11493;43.344;26.226;2023-09-18T00:55:55;99839.63;;;15.95;100.00
22653;BME280;11493;43.344;26.226;2023-09-18T00:58:24;99853.09;;;16.05;100.00
22653;BME280;11493;43.344;26.226;2023-09-18T01:00:52;99861.22;;;16.10;100.00
22653;BME280;11493;43.344;26.226;2023-09-18T01:03:21;99849.66;;;16.08;100.00
22653;BME280;11493;43.344;26.226;2023-09-18T01:05:48;99856.97;;;16.13;100.00
22653;BME280;11493;43.344;26.226;2023-09-18T01:08:15;99855.53;;;16.06;100.00
22653;BME280;11493;43.344;26.226;2023-09-18T01:10:52;99859.31;;;16.02;100.00
22653;BME280;11493;43.344;26.226;2023-09-18T01:13:24;99861.16;;;15.98;100.00
22653;BME280;11493;43.344;26.226;2023-09-18T01:15:59;99866.09;;;15.92;100.00
22653;BME280;11493;43.344;26.226;2023-09-18T01:18:27;99859.94;;;15.87;100.00
22653;BME280;11493;43.344;26.226;2023-09-18T01:20:54;99838.13;;;15.76;100.00
22653;BME280;11493;43.344;26.226;2023-09-18T01:23:21;99836.50;;;15.75;100.00
22653;BME280;11493;43.344;26.226;2023-09-18T01:25:49;99858.63;;;15.84;100.00
22653;BME280;11493;43.344;26.226;2023-09-18T01:28:16;99847.72;;;15.79;100.00
22653;BME280;11493;43.344;26.226;2023-09-18T01:30:44;99868.59;;;15.85;100.00
22653;BME280;11493;43.344;26.226;2023-09-18T01:33:11;99834.78;;;15.62;100.00
22653;BME280;11493;43.344;26.226;2023-09-18T01:35:40;99840.00;;;15.64;100.00
22653;BME280;11493;43.344;26.226;2023-09-18T01:38:08;99836.63;;;15.58;100.00
22653;BME280;11493;43.344;26.226;2023-09-18T01:40:37;99857.44;;;15.64;100.00
22653;BME280;11493;43.344;26.226;2023-09-18T01:43:05;99850.19;;;15.51;100.00
22653;BME280;11493;43.344;26.226;2023-09-18T01:45:34;99839.81;;;15.39;100.00
22653;BME280;11493;43.344;26.226;2023-09-18T01:48:04;99856.53;;;15.52;100.00
22653;BME280;11493;43.344;26.226;2023-09-18T01:50:32;99854.16;;;15.41;100.00
22653;BME280;11493;43.344;26.226;2023-09-18T01:52:59;99855.91;;;15.46;100.00
22653;BME280;11493;43.344;26.226;2023-09-18T01:55:26;99865.25;;;15.41;100.00
22653;BME280;11493;43.344;26.226;2023-09-18T01:57:56;99852.22;;;15.33;100.00
22653;BME280;11493;43.344;26.226;2023-09-18T02:00:23;99862.00;;;15.39;100.00
22653;BME280;11493;43.344;26.226;2023-09-18T02:02:52;99854.66;;;15.35;100.00
22653;BME280;11493;43.344;26.226;2023-09-18T02:05:40;99848.97;;;15.31;100.00
22653;BME280;11493;43.344;26.226;2023-09-18T02:08:08;99854.19;;;15.33;100.00
22653;BME280;11493;43.344;26.226;2023-09-18T02:10:35;99847.72;;;15.20;100.00
22653;BME280;11493;43.344;26.226;2023-09-18T02:13:02;99854.84;;;15.30;100.00
22653;BME280;11493;43.344;26.226;2023-09-18T02:15:31;99858.44;;;15.30;100.00
22653;BME280;11493;43.344;26.226;2023-09-18T02:17:59;99856.66;;;15.26;100.00
22653;BME280;11493;43.344;26.226;2023-09-18T02:20:26;99858.00;;;15.20;100.00
22653;BME280;11493;43.344;26.226;2023-09-18T02:22:53;99847.59;;;15.08;100.00
22653;BME280;11493;43.344;26.226;2023-09-18T02:25:21;99853.13;;;15.17;100.00
22653;BME280;11493;43.344;26.226;2023-09-18T02:27:48;99849.09;;;15.05;100.00
22653;BME280;11493;43.344;26.226;2023-09-18T02:30:16;99859.50;;;15.08;100.00
22653;BME280;11493;43.344;26.226;2023-09-18T02:32:46;99854.00;;;15.00;100.00
22653;BME280;11493;43.344;26.226;2023-09-18T02:35:13;99864.25;;;14.99;100.00
22653;BME280;11493;43.344;26.226;2023-09-18T02:37:40;99873.25;;;14.96;100.00
22653;BME280;11493;43.344;26.226;2023-09-18T02:40:16;99832.78;;;14.66;100.00
22653;BME280;11493;43.344;26.226;2023-09-18T02:42:43;99872.44;;;14.96;100.00
22653;BME280;11493;43.344;26.226;2023-09-18T02:45:11;99867.06;;;14.91;100.00
22653;BME280;11493;43.344;26.226;2023-09-18T02:47:38;99878.97;;;14.91;100.00
22653;BME280;11493;43.344;26.226;2023-09-18T02:50:08;99874.63;;;14.82;100.00
22653;BME280;11493;43.344;26.226;2023-09-18T02:52:38;99880.47;;;14.80;100.00
22653;BME280;11493;43.344;26.226;2023-09-18T02:55:05;99883.75;;;14.73;100.00
22653;BME280;11493;43.344;26.226;2023-09-18T02:57:33;99875.47;;;14.65;100.00
22653;BME280;11493;43.344;26.226;2023-09-18T03:00:00;99887.50;;;14.69;100.00
22653;BME280;11493;43.344;26.226;2023-09-18T03:02:28;99875.16;;;14.58;100.00
22653;BME280;11493;43.344;26.226;2023-09-18T03:04:56;99875.16;;;14.58;100.00
22653;BME280;11493;43.344;26.226;2023-09-18T03:07:23;99868.63;;;14.54;100.00
22653;BME280;11493;43.344;26.226;2023-09-18T03:09:50;99885.25;;;14.54;100.00
22653;BME280;11493;43.344;26.226;2023-09-18T03:12:18;99895.66;;;14.57;100.00
22653;BME280;11493;43.344;26.226;2023-09-18T03:14:45;99890.78;;;14.54;100.00
22653;BME280;11493;43.344;26.226;2023-09-18T03:17:14;99859.97;;;14.29;100.00
22653;BME280;11493;43.344;26.226;2023-09-18T03:19:41;99904.47;;;14.50;100.00
22653;BME280;11493;43.344;26.226;2023-09-18T03:22:10;99865.34;;;14.26;100.00
22653;BME280;11493;43.344;26.226;2023-09-18T03:24:37;99902.19;;;14.43;100.00
22653;BME280;11493;43.344;26.226;2023-09-18T03:27:04;99881.97;;;14.34;100.00
22653;BME280;11493;43.344;26.226;2023-09-18T03:29:32;99903.94;;;14.39;100.00
22653;BME280;11493;43.344;26.226;2023-09-18T03:31:59;99905.59;;;14.40;100.00
22653;BME280;11493;43.344;26.226;2023-09-18T03:34:26;99882.78;;;14.26;100.00
22653;BME280;11493;43.344;26.226;2023-09-18T03:36:54;99897.44;;;14.35;100.00
22653;BME280;11493;43.344;26.226;2023-09-18T03:39:21;99883.75;;;14.30;100.00
22653;BME280;11493;43.344;26.226;2023-09-18T03:41:48;99893.38;;;14.33;100.00
22653;BME280;11493;43.344;26.226;2023-09-18T03:44:15;99894.03;;;14.30;100.00
22653;BME280;11493;43.344;26.226;2023-09-18T03:46:43;99902.81;;;14.32;100.00
22653;BME280;11493;43.344;26.226;2023-09-18T03:49:11;99907.22;;;14.33;100.00
22653;BME280;11493;43.344;26.226;2023-09-18T03:51:39;99889.94;;;14.27;100.00
22653;BME280;11493;43.344;26.226;2023-09-18T03:54:06;99896.28;;;14.28;100.00
22653;BME280;11493;43.344;26.226;2023-09-18T03:56:33;99902.16;;;14.26;100.00
22653;BME280;11493;43.344;26.226;2023-09-18T03:59:00;99905.75;;;14.27;100.00
22653;BME280;11493;43.344;26.226;2023-09-18T04:01:28;99918.28;;;14.24;100.00
22653;BME280;11493;43.344;26.226;2023-09-18T04:03:55;99920.06;;;14.20;100.00
22653;BME280;11493;43.344;26.226;2023-09-18T04:06:22;99908.84;;;14.08;100.00
22653;BME280;11493;43.344;26.226;2023-09-18T04:08:51;99926.25;;;14.17;100.00
22653;BME280;11493;43.344;26.226;2023-09-18T04:11:19;99927.38;;;14.16;100.00
22653;BME280;11493;43.344;26.226;2023-09-18T04:13:52;99930.78;;;14.13;100.00
22653;BME280;11493;43.344;26.226;2023-09-18T04:16:19;99940.41;;;14.15;100.00
22653;BME280;11493;43.344;26.226;2023-09-18T04:18:46;99939.44;;;14.11;100.00
22653;BME280;11493;43.344;26.226;2023-09-18T04:21:14;99918.59;;;14.05;100.00
22653;BME280;11493;43.344;26.226;2023-09-18T04:23:41;99937.00;;;14.10;100.00
22653;BME280;11493;43.344;26.226;2023-09-18T04:26:08;99935.88;;;14.11;100.00
22653;BME280;11493;43.344;26.226;2023-09-18T04:28:35;99938.63;;;14.11;100.00
22653;BME280;11493;43.344;26.226;2023-09-18T04:31:06;99939.28;;;14.17;100.00
22653;BME280;11493;43.344;26.226;2023-09-18T04:33:33;99933.09;;;14.11;100.00
22653;BME280;11493;43.344;26.226;2023-09-18T04:36:01;99929.00;;;14.17;100.00
22653;BME280;11493;43.344;26.226;2023-09-18T04:38:31;99927.38;;;14.16;100.00
22653;BME280;11493;43.344;26.226;2023-09-18T04:40:59;99942.06;;;14.25;100.00
22653;BME280;11493;43.344;26.226;2023-09-18T04:43:27;99929.69;;;14.31;100.00
22653;BME280;11493;43.344;26.226;2023-09-18T04:45:57;99936.34;;;14.30;100.00
22653;BME280;11493;43.344;26.226;2023-09-18T04:48:24;99941.09;;;14.38;100.00
22653;BME280;11493;43.344;26.226;2023-09-18T04:50:52;99938.50;;;14.42;100.00
22653;BME280;11493;43.344;26.226;2023-09-18T04:53:19;99908.19;;;14.28;100.00
22653;BME280;11493;43.344;26.226;2023-09-18T04:55:47;99939.66;;;14.50;100.00
22653;BME280;11493;43.344;26.226;2023-09-18T04:58:17;99949.25;;;14.52;100.00
22653;BME280;11493;43.344;26.226;2023-09-18T05:00:45;99897.75;;;14.34;100.00
22653;BME280;11493;43.344;26.226;2023-09-18T05:03:13;99940.47;;;14.59;100.00
22653;BME280;11493;43.344;26.226;2023-09-18T05:05:41;99930.69;;;14.61;100.00
22653;BME280;11493;43.344;26.226;2023-09-18T05:08:08;99955.56;;;14.87;100.00
22653;BME280;11493;43.344;26.226;2023-09-18T05:10:36;99953.44;;;14.93;100.00
22653;BME280;11493;43.344;26.226;2023-09-18T05:13:04;99908.50;;;14.78;100.00
22653;BME280;11493;43.344;26.226;2023-09-18T05:15:31;99955.03;;;15.11;100.00
22653;BME280;11493;43.344;26.226;2023-09-18T05:17:59;99952.91;;;15.17;100.00
22653;BME280;11493;43.344;26.226;2023-09-18T05:20:29;99930.44;;;15.09;100.00
22653;BME280;11493;43.344;26.226;2023-09-18T05:22:57;99944.41;;;15.22;100.00
22653;BME280;11493;43.344;26.226;2023-09-18T05:25:26;99949.31;;;15.25;100.00
22653;BME280;11493;43.344;26.226;2023-09-18T05:27:53;99951.09;;;15.29;100.00
22653;BME280;11493;43.344;26.226;2023-09-18T05:30:29;99920.47;;;15.17;100.00
22653;BME280;11493;43.344;26.226;2023-09-18T05:32:58;99903.84;;;15.17;100.00
22653;BME280;11493;43.344;26.226;2023-09-18T05:35:40;99921.41;;;15.30;100.00
22653;BME280;11493;43.344;26.226;2023-09-18T05:38:08;99946.22;;;15.64;100.00
22653;BME280;11493;43.344;26.226;2023-09-18T05:40:38;99926.31;;;15.62;100.00
22653;BME280;11493;43.344;26.226;2023-09-18T05:43:05;99943.19;;;15.87;100.00
22653;BME280;11493;43.344;26.226;2023-09-18T05:45:33;99946.88;;;15.99;100.00
22653;BME280;11493;43.344;26.226;2023-09-18T05:48:00;99904.31;;;15.87;100.00
22653;BME280;11493;43.344;26.226;2023-09-18T05:50:32;99939.84;;;16.23;100.00
22653;BME280;11493;43.344;26.226;2023-09-18T05:53:00;99938.50;;;16.29;100.00
22653;BME280;11493;43.344;26.226;2023-09-18T05:55:32;99947.56;;;16.38;100.00
22653;BME280;11493;43.344;26.226;2023-09-18T05:58:00;99922.78;;;16.33;100.00
22653;BME280;11493;43.344;26.226;2023-09-18T06:00:30;99936.44;;;16.59;100.00
22653;BME280;11493;43.344;26.226;2023-09-18T06:02:58;99899.25;;;16.51;100.00
22653;BME280;11493;43.344;26.226;2023-09-18T06:05:26;99926.84;;;16.77;100.00
22653;BME280;11493;43.344;26.226;2023-09-18T06:07:53;99938.13;;;16.93;100.00
22653;BME280;11493;43.344;26.226;2023-09-18T06:10:21;99940.59;;;17.06;100.00
22653;BME280;11493;43.344;26.226;2023-09-18T06:12:48;99934.69;;;17.20;100.00
22653;BME280;11493;43.344;26.226;2023-09-18T06:15:15;99940.28;;;17.32;100.00
22653;BME280;11493;43.344;26.226;2023-09-18T06:17:43;99941.34;;;17.40;100.00
22653;BME280;11493;43.344;26.226;2023-09-18T06:20:11;99931.88;;;17.53;100.00
22653;BME280;11493;43.344;26.226;2023-09-18T06:22:43;99953.94;;;17.70;100.00
22653;BME280;11493;43.344;26.226;2023-09-18T06:25:10;99937.22;;;17.83;100.00
22653;BME280;11493;43.344;26.226;2023-09-18T06:27:37;99940.56;;;17.88;100.00
22653;BME280;11493;43.344;26.226;2023-09-18T06:30:05;99909.75;;;17.81;100.00
22653;BME280;11493;43.344;26.226;2023-09-18T06:32:33;99941.03;;;18.02;100.00
22653;BME280;11493;43.344;26.226;2023-09-18T06:35:00;99933.25;;;18.08;100.00
22653;BME280;11493;43.344;26.226;2023-09-18T06:37:28;99955.28;;;18.25;100.00
22653;BME280;11493;43.344;26.226;2023-09-18T06:39:55;99945.75;;;18.26;100.00
22653;BME280;11493;43.344;26.226;2023-09-18T06:42:25;99958.63;;;18.43;100.00
22653;BME280;11493;43.344;26.226;2023-09-18T06:44:56;99959.66;;;18.51;100.00
22653;BME280;11493;43.344;26.226;2023-09-18T06:47:23;99905.91;;;18.38;100.00
22653;BME280;11493;43.344;26.226;2023-09-18T06:49:54;99925.22;;;18.59;100.00
22653;BME280;11493;43.344;26.226;2023-09-18T06:52:21;99961.44;;;18.99;100.00
22653;BME280;11493;43.344;26.226;2023-09-18T06:54:48;99976.72;;;19.17;100.00
22653;BME280;11493;43.344;26.226;2023-09-18T06:57:15;99959.16;;;19.17;100.00
22653;BME280;11493;43.344;26.226;2023-09-18T06:59:42;99934.56;;;19.07;100.00
22653;BME280;11493;43.344;26.226;2023-09-18T07:02:10;99939.38;;;19.22;100.00
22653;BME280;11493;43.344;26.226;2023-09-18T07:04:37;99874.81;;;18.92;100.00
22653;BME280;11493;43.344;26.226;2023-09-18T07:07:13;99949.63;;;19.33;100.00
22653;BME280;11493;43.344;26.226;2023-09-18T07:09:43;99972.44;;;19.67;100.00
22653;BME280;11493;43.344;26.226;2023-09-18T07:12:29;99968.13;;;19.85;100.00
22653;BME280;11493;43.344;26.226;2023-09-18T07:15:00;99951.00;;;19.87;100.00
22653;BME280;11493;43.344;26.226;2023-09-18T07:17:30;99955.78;;;20.02;100.00
22653;BME280;11493;43.344;26.226;2023-09-18T07:19:58;99974.78;;;20.31;100.00
22653;BME280;11493;43.344;26.226;2023-09-18T07:22:26;99972.66;;;20.41;100.00
22653;BME280;11493;43.344;26.226;2023-09-18T07:24:56;99947.13;;;20.42;100.00
22653;BME280;11493;43.344;26.226;2023-09-18T07:27:24;99914.94;;;20.32;100.00
22653;BME280;11493;43.344;26.226;2023-09-18T07:29:51;99967.91;;;20.80;100.00
22653;BME280;11493;43.344;26.226;2023-09-18T07:32:18;99950.72;;;20.81;99.73
22653;BME280;11493;43.344;26.226;2023-09-18T07:35:03;99968.81;;;21.07;97.37
22653;BME280;11493;43.344;26.226;2023-09-18T07:37:35;99960.34;;;21.03;96.36
22653;BME280;11493;43.344;26.226;2023-09-18T07:40:07;99876.81;;;20.59;97.13
22653;BME280;11493;43.344;26.226;2023-09-18T07:42:34;99952.31;;;21.21;96.02
22653;BME280;11493;43.344;26.226;2023-09-18T07:45:01;99953.13;;;21.41;96.32
22653;BME280;11493;43.344;26.226;2023-09-18T07:47:29;99973.59;;;21.45;94.38
22653;BME280;11493;43.344;26.226;2023-09-18T07:49:59;99951.00;;;21.34;94.50
22653;BME280;11493;43.344;26.226;2023-09-18T07:52:27;99956.84;;;21.48;92.49
22653;BME280;11493;43.344;26.226;2023-09-18T07:54:54;99970.78;;;21.68;90.49
22653;BME280;11493;43.344;26.226;2023-09-18T07:57:21;99975.06;;;21.61;91.95
22653;BME280;11493;43.344;26.226;2023-09-18T07:59:50;99980.41;;;21.70;90.35
22653;BME280;11493;43.344;26.226;2023-09-18T08:02:18;99917.16;;;21.43;91.27
22653;BME280;11493;43.344;26.226;2023-09-18T08:04:46;99922.22;;;21.60;89.61
22653;BME280;11493;43.344;26.226;2023-09-18T08:07:13;99975.81;;;22.04;88.69
22653;BME280;11493;43.344;26.226;2023-09-18T08:09:40;99918.47;;;21.75;85.67
22653;BME280;11493;43.344;26.226;2023-09-18T08:12:08;99879.41;;;21.59;81.40
22653;BME280;11493;43.344;26.226;2023-09-18T08:14:38;99960.91;;;22.23;81.08
22653;BME280;11493;43.344;26.226;2023-09-18T08:17:05;99963.50;;;22.39;76.42
22653;BME280;11493;43.344;26.226;2023-09-18T08:19:36;99961.56;;;22.43;74.79
22653;BME280;11493;43.344;26.226;2023-09-18T08:22:04;99907.31;;;22.02;73.88
22653;BME280;11493;43.344;26.226;2023-09-18T08:24:31;99943.44;;;22.37;71.01
22653;BME280;11493;43.344;26.226;2023-09-18T08:26:58;99910.88;;;22.25;69.66
22653;BME280;11493;43.344;26.226;2023-09-18T08:29:25;99879.44;;;22.12;70.52
22653;BME280;11493;43.344;26.226;2023-09-18T08:31:53;99873.50;;;22.17;71.26
22653;BME280;11493;43.344;26.226;2023-09-18T08:34:20;99934.22;;;22.66;67.73
22653;BME280;11493;43.344;26.226;2023-09-18T08:36:50;99891.25;;;22.28;69.49
22653;BME280;11493;43.344;26.226;2023-09-18T08:39:17;99900.25;;;22.41;67.34
22653;BME280;11493;43.344;26.226;2023-09-18T08:41:45;99889.84;;;22.42;68.40
22653;BME280;11493;43.344;26.226;2023-09-18T08:44:15;99934.38;;;22.77;69.26
22653;BME280;11493;43.344;26.226;2023-09-18T08:46:42;99934.53;;;22.87;70.24
22653;BME280;11493;43.344;26.226;2023-09-18T08:49:10;99937.00;;;22.92;69.67
22653;BME280;11493;43.344;26.226;2023-09-18T08:51:38;99923.03;;;23.00;69.74
22653;BME280;11493;43.344;26.226;2023-09-18T08:54:06;99923.59;;;23.16;71.50
22653;BME280;11493;43.344;26.226;2023-09-18T08:56:33;99872.47;;;22.96;72.43
22653;BME280;11493;43.344;26.226;2023-09-18T08:59:01;99902.75;;;23.17;72.07
22653;BME280;11493;43.344;26.226;2023-09-18T09:01:28;99915.00;;;23.39;71.53
22653;BME280;11493;43.344;26.226;2023-09-18T09:03:56;99910.19;;;23.39;72.80
22653;BME280;11493;43.344;26.226;2023-09-18T09:06:23;99905.38;;;23.40;70.43
22653;BME280;11493;43.344;26.226;2023-09-18T09:08:50;99851.72;;;23.08;70.17
22653;BME280;11493;43.344;26.226;2023-09-18T09:11:18;99836.91;;;23.11;69.77
22653;BME280;11493;43.344;26.226;2023-09-18T09:13:46;99846.69;;;23.27;70.61
22653;BME280;11493;43.344;26.226;2023-09-18T09:16:17;99918.41;;;23.58;71.83
22653;BME280;11493;43.344;26.226;2023-09-18T09:18:49;99903.88;;;23.49;72.13
22653;BME280;11493;43.344;26.226;2023-09-18T09:21:18;99821.69;;;23.12;72.29
22653;BME280;11493;43.344;26.226;2023-09-18T09:23:48;99860.41;;;23.36;71.38
22653;BME280;11493;43.344;26.226;2023-09-18T09:26:22;99900.09;;;23.79;72.23
22653;BME280;11493;43.344;26.226;2023-09-18T09:28:50;99881.59;;;23.71;71.54
22653;BME280;11493;43.344;26.226;2023-09-18T09:31:26;99883.22;;;23.79;72.56
22653;BME280;11493;43.344;26.226;2023-09-18T09:33:55;99893.41;;;23.98;71.68
22653;BME280;11493;43.344;26.226;2023-09-18T09:36:26;99837.31;;;23.53;71.51
22653;BME280;11493;43.344;26.226;2023-09-18T09:38:57;99895.41;;;23.97;71.49
22653;BME280;11493;43.344;26.226;2023-09-18T09:41:26;99903.63;;;24.23;70.18
22653;BME280;11493;43.344;26.226;2023-09-18T09:43:57;99880.28;;;24.16;71.22
22653;BME280;11493;43.344;26.226;2023-09-18T09:46:25;99905.72;;;24.34;70.40
22653;BME280;11493;43.344;26.226;2023-09-18T09:49:00;99865.00;;;24.17;70.72
22653;BME280;11493;43.344;26.226;2023-09-18T09:51:28;99848.91;;;24.10;68.59
22653;BME280;11493;43.344;26.226;2023-09-18T09:53:56;99881.03;;;24.09;69.29
22653;BME280;11493;43.344;26.226;2023-09-18T09:56:49;99847.22;;;23.95;70.69
22653;BME280;11493;43.344;26.226;2023-09-18T09:59:18;99885.91;;;24.19;70.33
22653;BME280;11493;43.344;26.226;2023-09-18T10:01:47;99846.00;;;23.92;71.63
22653;BME280;11493;43.344;26.226;2023-09-18T10:04:18;99882.78;;;24.28;68.56
22653;BME280;11493;43.344;26.226;2023-09-18T10:06:57;99885.19;;;24.30;68.29
22653;BME280;11493;43.344;26.226;2023-09-18T10:09:27;99885.19;;;24.26;69.02
22653;BME280;11493;43.344;26.226;2023-09-18T10:11:57;99813.34;;;23.70;68.16
22653;BME280;11493;43.344;26.226;2023-09-18T10:14:30;99829.84;;;23.79;67.84
22653;BME280;11493;43.344;26.226;2023-09-18T10:17:22;99777.50;;;23.53;68.29
22653;BME280;11493;43.344;26.226;2023-09-18T10:20:16;99871.72;;;23.98;66.29
22653;BME280;11493;43.344;26.226;2023-09-18T10:22:49;99849.19;;;23.91;66.77
22653;BME280;11493;43.344;26.226;2023-09-18T10:25:29;99844.88;;;24.08;66.20
22653;BME280;11493;43.344;26.226;2023-09-18T10:27:59;99854.19;;;24.22;67.20
22653;BME280;11493;43.344;26.226;2023-09-18T10:30:32;99852.28;;;24.34;68.51
22653;BME280;11493;43.344;26.226;2023-09-18T10:33:01;99849.53;;;24.48;68.35
22653;BME280;11493;43.344;26.226;2023-09-18T10:35:29;99808.00;;;24.20;68.06
22653;BME280;11493;43.344;26.226;2023-09-18T10:37:57;99843.91;;;24.55;67.22
22653;BME280;11493;43.344;26.226;2023-09-18T10:40:25;99840.69;;;24.46;62.54
22653;BME280;11493;43.344;26.226;2023-09-18T10:42:57;99841.81;;;24.31;61.30
22653;BME280;11493;43.344;26.226;2023-09-18T10:45:27;99843.47;;;24.42;62.12
22653;BME280;11493;43.344;26.226;2023-09-18T10:47:55;99845.91;;;24.58;61.19
22653;BME280;11493;43.344;26.226;2023-09-18T10:50:24;99774.22;;;24.16;61.18
22653;BME280;11493;43.344;26.226;2023-09-18T10:52:52;99839.53;;;24.75;59.09
22653;BME280;11493;43.344;26.226;2023-09-18T10:55:21;99773.97;;;24.43;56.78
22653;BME280;11493;43.344;26.226;2023-09-18T10:57:53;99759.50;;;24.48;57.39
22653;BME280;11493;43.344;26.226;2023-09-18T11:00:28;99788.47;;;24.73;55.31
22653;BME280;11493;43.344;26.226;2023-09-18T11:03:13;99829.19;;;25.15;56.54
22653;BME280;11493;43.344;26.226;2023-09-18T11:05:41;99757.06;;;24.53;53.66
22653;BME280;11493;43.344;26.226;2023-09-18T11:08:31;99791.25;;;24.59;54.47
22653;BME280;11493;43.344;26.226;2023-09-18T11:11:06;99800.13;;;24.65;54.39
22653;BME280;11493;43.344;26.226;2023-09-18T11:13:42;99825.06;;;24.73;54.35
22653;BME280;11493;43.344;26.226;2023-09-18T11:16:18;99778.38;;;24.44;54.43
22653;BME280;11493;43.344;26.226;2023-09-18T11:21:30;99752.53;;;24.13;51.88
22653;BME280;11493;43.344;26.226;2023-09-18T11:24:05;99800.47;;;24.42;50.91
22653;BME280;11493;43.344;26.226;2023-09-18T11:26:34;99780.63;;;24.13;53.38
22653;BME280;11493;43.344;26.226;2023-09-18T11:29:05;99799.16;;;24.25;52.07
22653;BME280;11493;43.344;26.226;2023-09-18T11:31:46;99773.41;;;24.12;51.96
22653;BME280;11493;43.344;26.226;2023-09-18T11:34:22;99813.75;;;24.45;51.70
22653;BME280;11493;43.344;26.226;2023-09-18T11:36:50;99775.13;;;24.35;51.21
22653;BME280;11493;43.344;26.226;2023-09-18T11:39:37;99800.94;;;24.69;50.78
22653;BME280;11493;43.344;26.226;2023-09-18T11:42:13;99710.78;;;24.19;50.96
22653;BME280;11493;43.344;26.226;2023-09-18T11:44:40;99789.69;;;24.76;50.73
22653;BME280;11493;43.344;26.226;2023-09-18T11:47:10;99798.56;;;24.92;49.79
22653;BME280;11493;43.344;26.226;2023-09-18T11:49:48;99791.75;;;24.97;49.78
22653;BME280;11493;43.344;26.226;2023-09-18T11:52:17;99796.19;;;25.12;48.43
22653;BME280;11493;43.344;26.226;2023-09-18T11:54:46;99750.69;;;24.92;49.50
22653;BME280;11493;43.344;26.226;2023-09-18T11:57:14;99782.53;;;25.21;48.39
22653;BME280;11493;43.344;26.226;2023-09-18T11:59:41;99787.31;;;25.31;47.87
22653;BME280;11493;43.344;26.226;2023-09-18T12:02:28;99778.91;;;25.24;48.85
22653;BME280;11493;43.344;26.226;2023-09-18T12:05:15;99774.88;;;25.25;49.54
22653;BME280;11493;43.344;26.226;2023-09-18T12:07:45;99772.06;;;25.25;49.24
22653;BME280;11493;43.344;26.226;2023-09-18T12:10:18;99729.44;;;25.02;49.31
22653;BME280;11493;43.344;26.226;2023-09-18T12:12:47;99767.19;;;25.47;48.06
22653;BME280;11493;43.344;26.226;2023-09-18T12:15:17;99748.28;;;25.44;49.68
22653;BME280;11493;43.344;26.226;2023-09-18T12:17:45;99755.09;;;25.61;47.41
22653;BME280;11493;43.344;26.226;2023-09-18T12:20:16;99718.50;;;25.36;46.79
22653;BME280;11493;43.344;26.226;2023-09-18T12:22:50;99721.34;;;25.29;46.54
22653;BME280;11493;43.344;26.226;2023-09-18T12:25:18;99761.13;;;25.55;46.37
22653;BME280;11493;43.344;26.226;2023-09-18T12:27:46;99762.34;;;25.58;46.84
22653;BME280;11493;43.344;26.226;2023-09-18T12:30:18;99735.78;;;25.48;48.32
22653;BME280;11493;43.344;26.226;2023-09-18T12:32:47;99764.34;;;25.61;47.18
22653;BME280;11493;43.344;26.226;2023-09-18T12:35:15;99740.63;;;25.44;47.12
22653;BME280;11493;43.344;26.226;2023-09-18T12:37:45;99726.94;;;25.46;47.71
22653;BME280;11493;43.344;26.226;2023-09-18T12:40:27;99729.31;;;25.59;47.74
22653;BME280;11493;43.344;26.226;2023-09-18T12:42:57;99732.13;;;25.73;46.69
22653;BME280;11493;43.344;26.226;2023-09-18T12:45:27;99683.47;;;25.40;47.57
22653;BME280;11493;43.344;26.226;2023-09-18T12:47:57;99710.41;;;25.66;47.54
22653;BME280;11493;43.344;26.226;2023-09-18T12:50:26;99654.53;;;25.29;47.15
22653;BME280;11493;43.344;26.226;2023-09-18T12:52:53;99718.44;;;25.75;46.59
22653;BME280;11493;43.344;26.226;2023-09-18T12:55:25;99699.13;;;25.63;46.89
22653;BME280;11493;43.344;26.226;2023-09-18T12:57:53;99727.28;;;25.84;46.79
22653;BME280;11493;43.344;26.226;2023-09-18T13:00:21;99715.56;;;25.89;46.05